createdAt,value
2022-09-28T00:02:16.854Z,98669.70
2022-09-28T00:04:47.683Z,98664.94
2022-09-28T00:07:18.026Z,98662.46
2022-09-28T00:09:48.449Z,98660.21
2022-09-28T00:12:19.056Z,98651.19
2022-09-28T00:14:49.422Z,98646.07
2022-09-28T00:17:22.189Z,98645.85
2022-09-28T00:19:52.947Z,98645.30
2022-09-28T00:22:23.370Z,98637.02
2022-09-28T00:24:53.955Z,98633.61
2022-09-28T00:27:24.410Z,98631.08
2022-09-28T00:29:55.832Z,98626.70
2022-09-28T00:32:26.893Z,98624.33
2022-09-28T00:34:57.301Z,98623.42
2022-09-28T00:37:27.823Z,98621.57
2022-09-28T00:39:58.340Z,98619.41
2022-09-28T00:42:30.648Z,98620.56
2022-09-28T00:45:01.298Z,98614.77
2022-09-28T00:47:49.759Z,98615.60
2022-09-28T00:50:25.826Z,98612.40
2022-09-28T00:53:00.886Z,98609.23
2022-09-28T00:55:39.301Z,98604.81
2022-09-28T00:58:12.530Z,98600.38
2022-09-28T01:00:43.909Z,98590.89
2022-09-28T01:03:14.322Z,98588.45
2022-09-28T01:05:46.212Z,98584.02
2022-09-28T01:08:19.592Z,98580.52
2022-09-28T01:10:50.901Z,98578.73
2022-09-28T01:13:25.648Z,98574.95
2022-09-28T01:16:08.069Z,98570.98
2022-09-28T01:18:46.063Z,98559.98
2022-09-28T01:21:20.667Z,98555.11
2022-09-28T01:24:22.877Z,98546.78
2022-09-28T01:27:03.914Z,98546.90
2022-09-28T01:29:47.598Z,98540.84
2022-09-28T01:32:26.651Z,98530.91
2022-09-28T01:35:03.654Z,98518.19
2022-09-28T01:37:43.878Z,98508.30
2022-09-28T01:40:17.017Z,98505.62
2022-09-28T01:42:56.972Z,98498.81
2022-09-28T01:45:32.004Z,98499.77
2022-09-28T01:48:07.933Z,98499.65
2022-09-28T01:50:43.049Z,98497.15
2022-09-28T01:53:19.239Z,98494.25
2022-09-28T01:55:55.366Z,98493.77
2022-09-28T01:58:33.449Z,98497.36
2022-09-28T02:01:09.943Z,98498.63
2022-09-28T02:03:46.790Z,98497.35
2022-09-28T02:06:26.117Z,98482.48
2022-09-28T02:09:01.384Z,98487.98
2022-09-28T02:11:43.914Z,98481.25
2022-09-28T02:14:16.992Z,98476.96
2022-09-28T02:16:51.555Z,98468.79
2022-09-28T02:19:27.389Z,98472.05
2022-09-28T02:22:03.042Z,98469.02
2022-09-28T02:24:39.652Z,98476.59
2022-09-28T02:27:17.382Z,98485.98
2022-09-28T02:29:49.681Z,98480.30
2022-09-28T02:32:22.178Z,98475.51
2022-09-28T02:34:52.649Z,98467.73
2022-09-28T02:37:23.230Z,98461.94
2022-09-28T02:39:53.622Z,98455.77
2022-09-28T02:42:30.087Z,98450.94
2022-09-28T02:45:16.355Z,98463.13
2022-09-28T02:48:04.976Z,98466.40
2022-09-28T02:50:49.183Z,98473.30
2022-09-28T02:53:52.270Z,98471.77
2022-09-28T02:56:51.965Z,98468.27
2022-09-28T02:59:37.933Z,98463.86
2022-09-28T03:02:19.722Z,98464.96
2022-09-28T03:05:03.394Z,98462.55
2022-09-28T03:07:41.230Z,98453.66
2022-09-28T03:10:18.433Z,98451.41
2022-09-28T03:12:50.470Z,98453.16
2022-09-28T03:15:26.774Z,98451.63
2022-09-28T03:17:58.861Z,98452.00
2022-09-28T03:20:31.794Z,98441.28
2022-09-28T03:25:53.238Z,98453.41
2022-09-28T03:28:24.045Z,98447.42
2022-09-28T03:30:55.241Z,98450.09
2022-09-28T03:33:26.319Z,98452.59
2022-09-28T03:35:56.900Z,98452.86
2022-09-28T03:38:27.787Z,98457.50
2022-09-28T03:41:00.433Z,98454.89
2022-09-28T03:43:34.462Z,98449.14
2022-09-28T03:46:05.728Z,98446.36
2022-09-28T03:48:42.395Z,98452.08
2022-09-28T03:51:15.113Z,98454.61
2022-09-28T03:53:46.236Z,98450.95
2022-09-28T03:56:17.853Z,98453.02
2022-09-28T03:58:48.697Z,98449.86
2022-09-28T04:01:19.492Z,98451.33
2022-09-28T04:03:54.055Z,98454.17
2022-09-28T04:06:25.116Z,98452.10
2022-09-28T04:08:55.917Z,98448.98
2022-09-28T04:11:26.239Z,98447.62
2022-09-28T04:13:56.880Z,98450.41
2022-09-28T04:16:27.734Z,98451.11
2022-09-28T04:19:17.449Z,98457.06
2022-09-28T04:21:53.915Z,98462.47
2022-09-28T04:24:24.339Z,98461.39
2022-09-28T04:27:15.401Z,98461.09
2022-09-28T04:29:45.961Z,98461.38
2022-09-28T04:32:17.628Z,98463.77
2022-09-28T04:34:47.978Z,98458.91
2022-09-28T04:37:18.614Z,98455.31
2022-09-28T04:39:49.229Z,98458.80
2022-09-28T04:42:22.550Z,98466.83
2022-09-28T04:44:53.625Z,98464.45
2022-09-28T04:47:24.067Z,98466.08
2022-09-28T04:50:16.418Z,98467.93
2022-09-28T04:53:06.281Z,98463.40
2022-09-28T04:55:35.136Z,98467.38
2022-09-28T04:58:06.555Z,98464.80
2022-09-28T05:00:35.807Z,98465.75
2022-09-28T05:03:15.394Z,98465.08
2022-09-28T05:06:05.080Z,98469.64
2022-09-28T05:08:47.118Z,98473.42
2022-09-28T05:11:19.943Z,98475.64
2022-09-28T05:13:50.429Z,98477.33
2022-09-28T05:16:21.446Z,98481.23
2022-09-28T05:19:15.176Z,98489.42
2022-09-28T05:21:48.799Z,98490.67
2022-09-28T05:24:19.184Z,98489.97
2022-09-28T05:26:54.030Z,98496.08
2022-09-28T05:29:24.382Z,98490.80
2022-09-28T05:32:13.936Z,98495.31
2022-09-28T05:35:02.053Z,98495.86
2022-09-28T05:37:42.153Z,98497.88
2022-09-28T05:40:13.631Z,98502.02
2022-09-28T05:42:44.151Z,98502.98
2022-09-28T05:45:16.539Z,98507.27
2022-09-28T05:47:48.601Z,98510.93
2022-09-28T05:50:22.344Z,98510.81
2022-09-28T05:53:02.461Z,98508.38
2022-09-28T05:55:33.853Z,98509.95
2022-09-28T05:58:05.912Z,98514.33
2022-09-28T06:00:37.281Z,98514.73
2022-09-28T06:03:09.265Z,98518.79
2022-09-28T06:05:41.112Z,98520.54
2022-09-28T06:08:11.712Z,98524.34
2022-09-28T06:10:46.385Z,98528.34
2022-09-28T06:13:17.307Z,98527.98
2022-09-28T06:15:47.669Z,98528.63
2022-09-28T06:18:18.219Z,98534.71
2022-09-28T06:21:10.734Z,98532.27
2022-09-28T06:23:49.241Z,98535.08
2022-09-28T06:26:22.168Z,98536.77
2022-09-28T06:28:55.624Z,98541.76
2022-09-28T06:31:26.252Z,98547.70
2022-09-28T06:33:59.637Z,98552.67
2022-09-28T06:36:32.298Z,98556.33
2022-09-28T06:39:05.448Z,98559.36
2022-09-28T06:41:37.203Z,98563.84
2022-09-28T06:44:17.300Z,98565.06
2022-09-28T06:47:06.020Z,98565.30
2022-09-28T06:49:55.515Z,98573.11
2022-09-28T06:52:44.531Z,98571.71
2022-09-28T06:55:28.801Z,98573.67
2022-09-28T06:58:03.153Z,98570.21
2022-09-28T07:00:35.946Z,98574.19
2022-09-28T07:03:08.604Z,98578.58
2022-09-28T07:06:00.451Z,98584.23
2022-09-28T07:09:24.519Z,98585.05
2022-09-28T07:12:25.496Z,98593.10
2022-09-28T07:14:58.584Z,98595.13
2022-09-28T07:17:39.259Z,98599.29
2022-09-28T07:20:19.210Z,98602.02
2022-09-28T07:22:56.107Z,98603.39
2022-09-28T07:25:30.153Z,98608.02
2022-09-28T07:28:31.228Z,98611.34
2022-09-28T07:31:21.601Z,98615.90
2022-09-28T07:34:01.015Z,98619.77
2022-09-28T07:36:36.376Z,98621.81
2022-09-28T07:39:07.232Z,98620.95
2022-09-28T07:41:39.626Z,98629.30
2022-09-28T07:44:10.962Z,98632.95
2022-09-28T07:46:43.341Z,98640.27
2022-09-28T07:49:22.989Z,98644.25
2022-09-28T07:52:18.558Z,98646.99
2022-09-28T07:55:13.234Z,98645.70
2022-09-28T07:58:02.567Z,98653.95
2022-09-28T08:00:52.614Z,98655.17
2022-09-28T08:03:23.324Z,98660.23
2022-09-28T08:05:58.159Z,98663.48
2022-09-28T08:08:30.163Z,98664.05
2022-09-28T08:11:01.115Z,98669.30
2022-09-28T08:13:52.890Z,98669.78
2022-09-28T08:16:47.535Z,98672.38
2022-09-28T08:19:51.253Z,98673.26
2022-09-28T08:22:22.655Z,98674.80
2022-09-28T08:24:55.184Z,98672.41
2022-09-28T08:27:25.571Z,98676.10
2022-09-28T08:29:56.171Z,98679.58
2022-09-28T08:32:50.313Z,98680.62
2022-09-28T08:35:42.467Z,98683.38
2022-09-28T08:38:23.260Z,98676.54
2022-09-28T08:41:39.079Z,98683.05
2022-09-28T08:47:56.369Z,98682.59
2022-09-28T08:50:39.828Z,98687.83
2022-09-28T08:53:36.947Z,98691.23
2022-09-28T08:56:16.678Z,98690.22
2022-09-28T08:58:53.897Z,98692.55
2022-09-28T09:01:27.604Z,98692.61
2022-09-28T09:03:59.906Z,98695.50
2022-09-28T09:07:08.665Z,98692.98
2022-09-28T09:09:57.311Z,98693.16
2022-09-28T09:12:41.998Z,98694.20
2022-09-28T09:15:34.787Z,98698.77
2022-09-28T09:18:23.168Z,98701.09
2022-09-28T09:21:41.301Z,98700.85
2022-09-28T09:24:27.362Z,98702.85
2022-09-28T09:27:06.863Z,98705.53
2022-09-28T09:30:00.343Z,98710.45
2022-09-28T09:32:52.029Z,98712.30
2022-09-28T09:35:47.434Z,98717.56
2022-09-28T09:38:47.712Z,98718.30
2022-09-28T09:41:50.104Z,98715.73
2022-09-28T09:44:43.966Z,98714.26
2022-09-28T09:47:32.257Z,98717.23
2022-09-28T09:50:16.369Z,98711.73
2022-09-28T09:52:57.251Z,98709.38
2022-09-28T09:55:32.971Z,98710.00
2022-09-28T09:58:33.128Z,98714.02
2022-09-28T10:01:24.736Z,98712.80
2022-09-28T10:04:22.600Z,98722.03
2022-09-28T10:06:58.690Z,98725.14
2022-09-28T10:09:35.762Z,98725.52
2022-09-28T10:12:24.473Z,98720.27
2022-09-28T10:14:56.020Z,98721.95
2022-09-28T10:17:27.760Z,98722.70
2022-09-28T10:20:18.947Z,98722.60
2022-09-28T10:23:24.693Z,98718.36
2022-09-28T10:26:00.715Z,98724.55
2022-09-28T10:28:40.370Z,98724.48
2022-09-28T10:31:38.947Z,98726.60
2022-09-28T10:34:17.120Z,98726.77
2022-09-28T10:36:58.146Z,98730.52
2022-09-28T10:39:37.355Z,98730.13
2022-09-28T10:42:11.263Z,98731.31
2022-09-28T10:44:53.933Z,98732.34
2022-09-28T10:47:36.209Z,98729.02
2022-09-28T10:50:23.674Z,98729.56
2022-09-28T10:53:13.618Z,98730.60
2022-09-28T10:56:07.701Z,98733.81
2022-09-28T10:58:42.242Z,98736.80
2022-09-28T11:01:21.675Z,98729.13
2022-09-28T11:03:57.258Z,98723.30
2022-09-28T11:06:31.458Z,98723.72
2022-09-28T11:09:04.674Z,98720.69
2022-09-28T11:11:43.313Z,98713.64
2022-09-28T11:14:28.963Z,98709.46
2022-09-28T11:17:25.627Z,98717.67
2022-09-28T11:19:58.557Z,98722.59
2022-09-28T11:22:48.039Z,98720.45
2022-09-28T11:25:30.524Z,98716.49
2022-09-28T11:28:04.799Z,98713.89
2022-09-28T11:30:40.676Z,98714.46
2022-09-28T11:33:31.499Z,98715.37
2022-09-28T11:36:39.634Z,98717.35
2022-09-28T11:39:20.222Z,98712.56
2022-09-28T11:42:03.359Z,98712.92
2022-09-28T11:45:00.509Z,98705.60
2022-09-28T11:47:58.030Z,98709.67
2022-09-28T11:50:38.417Z,98713.05
2022-09-28T11:53:22.406Z,98711.31
2022-09-28T11:55:59.542Z,98706.69
2022-09-28T11:58:36.618Z,98701.98
2022-09-28T12:01:22.576Z,98701.95
2022-09-28T12:04:20.912Z,98697.39
2022-09-28T12:06:57.037Z,98699.16
2022-09-28T12:09:36.192Z,98699.25
2022-09-28T12:12:25.447Z,98709.13
2022-09-28T12:15:03.678Z,98717.86
2022-09-28T12:17:44.246Z,98718.24
2022-09-28T12:20:21.565Z,98719.17
2022-09-28T12:23:02.171Z,98719.88
2022-09-28T12:25:43.217Z,98716.42
2022-09-28T12:28:26.571Z,98715.13
2022-09-28T12:31:03.729Z,98716.30
2022-09-28T12:33:35.078Z,98714.10
2022-09-28T12:36:08.807Z,98725.27
2022-09-28T12:39:18.162Z,98721.88
2022-09-28T12:42:07.340Z,98718.98
2022-09-28T12:45:01.035Z,98720.46
2022-09-28T12:47:57.289Z,98723.73
2022-09-28T12:50:38.606Z,98724.61
2022-09-28T12:53:26.876Z,98722.75
2022-09-28T12:56:03.089Z,98721.13
2022-09-28T12:58:55.863Z,98716.12
2022-09-28T13:01:47.018Z,98712.57
2022-09-28T13:04:51.457Z,98709.92
2022-09-28T13:07:30.722Z,98711.73
2022-09-28T13:10:18.865Z,98716.11
2022-09-28T13:13:05.360Z,98715.79
2022-09-28T13:15:47.200Z,98708.10
2022-09-28T13:18:27.924Z,98708.80
2022-09-28T13:21:10.660Z,98704.55
2022-09-28T13:23:44.115Z,98700.30
2022-09-28T13:26:27.183Z,98700.39
2022-09-28T13:29:04.945Z,98695.77
2022-09-28T13:31:40.572Z,98697.02
2022-09-28T13:34:20.545Z,98695.30
2022-09-28T13:37:11.316Z,98690.79
2022-09-28T13:39:52.174Z,98692.65
2022-09-28T13:42:35.940Z,98695.56
2022-09-28T13:45:28.922Z,98696.69
2022-09-28T13:48:12.282Z,98692.02
2022-09-28T13:51:09.252Z,98693.61
2022-09-28T13:53:55.237Z,98694.21
2022-09-28T13:56:37.280Z,98693.65
2022-09-28T13:59:20.605Z,98698.90
2022-09-28T14:02:06.303Z,98698.63
2022-09-28T14:04:59.335Z,98696.09
2022-09-28T14:08:10.757Z,98697.98
2022-09-28T14:10:52.338Z,98694.65
2022-09-28T14:14:00.605Z,98699.69
2022-09-28T14:16:32.543Z,98702.22
2022-09-28T14:19:08.699Z,98702.02
2022-09-28T14:22:06.632Z,98703.70
2022-09-28T14:24:54.737Z,98705.59
2022-09-28T14:27:49.473Z,98708.08
2022-09-28T14:30:25.883Z,98707.40
2022-09-28T14:32:59.298Z,98708.55
2022-09-28T14:35:40.455Z,98711.51
2022-09-28T14:38:37.837Z,98711.98
2022-09-28T14:41:15.069Z,98715.79
2022-09-28T14:44:09.560Z,98717.44
2022-09-28T14:46:44.657Z,98717.83
2022-09-28T14:49:50.226Z,98722.96
2022-09-28T14:52:45.836Z,98723.69
2022-09-28T14:55:25.456Z,98725.61
2022-09-28T14:57:59.607Z,98726.98
2022-09-28T15:00:32.037Z,98729.70
2022-09-28T15:03:10.225Z,98731.27
2022-09-28T15:05:48.133Z,98730.67
2022-09-28T15:08:22.702Z,98729.77
2022-09-28T15:10:53.400Z,98731.34
2022-09-28T15:13:27.722Z,98730.90
2022-09-28T15:16:09.805Z,98732.42
2022-09-28T15:19:01.507Z,98731.70
2022-09-28T15:21:37.610Z,98735.13
2022-09-28T15:24:28.968Z,98733.05
2022-09-28T15:27:00.210Z,98735.17
2022-09-28T15:29:33.206Z,98738.61
2022-09-28T15:32:04.704Z,98739.05
2022-09-28T15:34:52.465Z,98742.46
2022-09-28T15:37:25.928Z,98737.58
2022-09-28T15:39:59.215Z,98742.72
2022-09-28T15:42:36.141Z,98742.63
2022-09-28T15:45:23.079Z,98745.09
2022-09-28T15:47:56.090Z,98741.88
2022-09-28T15:50:29.760Z,98742.61
2022-09-28T15:53:04.129Z,98743.34
2022-09-28T15:55:46.286Z,98747.02
2022-09-28T15:58:21.130Z,98750.04
2022-09-28T16:01:13.094Z,98750.90
2022-09-28T16:03:43.702Z,98751.77
2022-09-28T16:06:14.294Z,98753.73
2022-09-28T16:08:48.478Z,98754.68
2022-09-28T16:11:24.110Z,98751.52
2022-09-28T16:14:06.076Z,98753.21
2022-09-28T16:16:46.689Z,98751.16
2022-09-28T16:19:25.208Z,98755.34
2022-09-28T16:21:58.920Z,98758.52
2022-09-28T16:24:32.804Z,98759.52
2022-09-28T16:27:05.669Z,98760.09
2022-09-28T16:29:40.778Z,98760.42
2022-09-28T16:32:41.719Z,98759.73
2022-09-28T16:35:22.294Z,98764.40
2022-09-28T16:38:00.342Z,98765.35
2022-09-28T16:40:32.279Z,98770.17
2022-09-28T16:43:06.298Z,98772.05
2022-09-28T16:45:38.732Z,98774.02
2022-09-28T16:48:10.828Z,98775.16
2022-09-28T16:50:41.617Z,98773.02
2022-09-28T16:53:33.807Z,98774.04
2022-09-28T16:56:05.566Z,98776.16
2022-09-28T16:58:36.577Z,98780.14
2022-09-28T17:01:08.664Z,98780.27
2022-09-28T17:03:42.217Z,98782.66
2022-09-28T17:06:13.697Z,98785.05
2022-09-28T17:08:45.414Z,98786.27
2022-09-28T17:11:23.760Z,98785.55
2022-09-28T17:13:58.985Z,98790.33
2022-09-28T17:16:59.944Z,98792.98
2022-09-28T17:19:27.371Z,98797.65
2022-09-28T17:21:57.854Z,98794.50
2022-09-28T17:24:28.439Z,98801.27
2022-09-28T17:27:00.723Z,98804.85
2022-09-28T17:29:32.554Z,98806.26
2022-09-28T17:32:04.922Z,98807.48
2022-09-28T17:34:35.644Z,98809.23
2022-09-28T17:37:06.138Z,98811.80
2022-09-28T17:39:36.529Z,98817.25
2022-09-28T17:42:07.135Z,98818.63
2022-09-28T17:44:37.622Z,98822.19
2022-09-28T17:47:08.124Z,98824.66
2022-09-28T17:49:38.830Z,98825.15
2022-09-28T17:52:09.652Z,98825.77
2022-09-28T17:54:40.065Z,98829.91
2022-09-28T17:57:11.407Z,98827.86
2022-09-28T17:59:40.382Z,98835.33
2022-09-28T18:02:13.557Z,98840.20
2022-09-28T18:04:52.612Z,98840.86
2022-09-28T18:07:23.287Z,98848.09
2022-09-28T18:09:58.217Z,98860.05
2022-09-28T18:12:28.659Z,98864.92
2022-09-28T18:14:59.124Z,98880.09
2022-09-28T18:17:29.719Z,98875.23
2022-09-28T18:20:00.166Z,98874.30
2022-09-28T18:22:31.020Z,98864.98
2022-09-28T18:25:01.518Z,98856.86
2022-09-28T18:27:34.069Z,98847.33
2022-09-28T18:30:05.138Z,98842.54
2022-09-28T18:32:37.842Z,98847.36
2022-09-28T18:35:11.469Z,98850.38
2022-09-28T18:37:42.887Z,98850.59
2022-09-28T18:40:15.445Z,98854.33
2022-09-28T18:42:51.025Z,98854.79
2022-09-28T18:45:21.805Z,98857.98
2022-09-28T18:47:52.277Z,98861.46
2022-09-28T18:50:23.003Z,98866.09
2022-09-28T18:52:53.433Z,98867.06
2022-09-28T18:55:23.973Z,98868.53
2022-09-28T18:57:54.575Z,98870.88
2022-09-28T19:00:25.383Z,98871.81
2022-09-28T19:02:56.097Z,98874.96
2022-09-28T19:05:28.362Z,98879.51
2022-09-28T19:08:01.758Z,98876.11
2022-09-28T19:10:32.294Z,98879.36
2022-09-28T19:13:02.701Z,98878.84
2022-09-28T19:15:34.968Z,98881.33
2022-09-28T19:18:09.489Z,98881.40
2022-09-28T19:20:42.146Z,98883.77
2022-09-28T19:23:12.761Z,98886.88
2022-09-28T19:25:43.252Z,98887.55
2022-09-28T19:28:13.841Z,98888.74
2022-09-28T19:30:44.873Z,98890.46
2022-09-28T19:33:17.541Z,98888.89
2022-09-28T19:35:57.520Z,98893.20
2022-09-28T19:38:31.110Z,98892.44
2022-09-28T19:41:02.853Z,98894.63
2022-09-28T19:43:34.893Z,98896.02
2022-09-28T19:46:08.357Z,98894.41
2022-09-28T19:48:39.552Z,98898.45
2022-09-28T19:51:10.733Z,98905.02
2022-09-28T19:53:43.411Z,98908.08
2022-09-28T19:56:14.328Z,98910.27
2022-09-28T19:58:44.821Z,98910.95
2022-09-28T20:01:15.751Z,98910.17
2022-09-28T20:03:46.480Z,98916.89
2022-09-28T20:06:17.527Z,98918.77
2022-09-28T20:08:48.276Z,98924.06
2022-09-28T20:11:22.004Z,98925.86
2022-09-28T20:13:55.288Z,98927.88
2022-09-28T20:16:25.931Z,98928.44
2022-09-28T20:19:03.041Z,98929.89
2022-09-28T20:21:33.853Z,98928.53
2022-09-28T20:24:05.687Z,98928.03
2022-09-28T20:26:37.881Z,98931.52
2022-09-28T20:29:09.140Z,98929.98
2022-09-28T20:31:40.296Z,98931.05
2022-09-28T20:34:13.039Z,98933.31
2022-09-28T20:36:44.586Z,98937.70
2022-09-28T20:39:15.977Z,98939.48
2022-09-28T20:41:47.246Z,98945.43
2022-09-28T20:44:21.071Z,98943.94
2022-09-28T20:46:53.826Z,98947.30
2022-09-28T20:49:24.451Z,98951.16
2022-09-28T20:51:55.139Z,98952.60
2022-09-28T20:54:25.732Z,98951.30
2022-09-28T20:56:56.261Z,98949.43
2022-09-28T20:59:27.703Z,98951.34
2022-09-28T21:01:56.806Z,98949.23
2022-09-28T21:04:27.472Z,98950.99
2022-09-28T21:06:57.900Z,98945.36
2022-09-28T21:09:30.201Z,98950.02
2022-09-28T21:12:00.782Z,98944.55
2022-09-28T21:14:31.574Z,98946.70
2022-09-28T21:17:02.118Z,98949.82
2022-09-28T21:19:32.532Z,98946.40
2022-09-28T21:22:03.085Z,98950.02
2022-09-28T21:24:33.568Z,98950.86
2022-09-28T21:27:06.398Z,98945.23
2022-09-28T21:29:36.950Z,98945.70
2022-09-28T21:32:08.199Z,98947.27
2022-09-28T21:34:38.766Z,98944.98
2022-09-28T21:37:09.119Z,98945.20
2022-09-28T21:39:39.919Z,98945.33
2022-09-28T21:42:10.523Z,98942.16
2022-09-28T21:44:41.096Z,98942.35
2022-09-28T21:47:11.424Z,98943.89
2022-09-28T21:49:41.843Z,98942.64
2022-09-28T21:52:12.868Z,98943.21
2022-09-28T21:54:43.246Z,98942.74
2022-09-28T21:57:13.622Z,98939.86
2022-09-28T21:59:44.174Z,98945.89
2022-09-28T22:02:14.531Z,98945.82
2022-09-28T22:04:45.147Z,98946.19
2022-09-28T22:07:15.498Z,98950.27
2022-09-28T22:09:47.776Z,98946.70
2022-09-28T22:12:20.974Z,98950.18
2022-09-28T22:14:51.647Z,98949.81
2022-09-28T22:17:22.133Z,98948.36
2022-09-28T22:19:57.675Z,98947.33
2022-09-28T22:22:29.272Z,98948.05
2022-09-28T22:25:00.830Z,98948.10
2022-09-28T22:27:32.835Z,98950.24
2022-09-28T22:30:03.305Z,98949.91
2022-09-28T22:32:33.740Z,98948.70
2022-09-28T22:35:04.451Z,98950.92
2022-09-28T22:37:34.966Z,98946.27
2022-09-28T22:40:06.454Z,98944.36
2022-09-28T22:42:38.119Z,98939.09
2022-09-28T22:45:09.905Z,98946.18
2022-09-28T22:47:40.468Z,98943.65
2022-09-28T22:50:11.395Z,98940.98
2022-09-28T22:52:41.890Z,98942.25
2022-09-28T22:55:13.936Z,98942.29
2022-09-28T22:57:44.367Z,98942.70
2022-09-28T23:00:16.241Z,98941.98
2022-09-28T23:02:46.903Z,98934.88
2022-09-28T23:05:18.481Z,98934.41
2022-09-28T23:07:48.894Z,98938.21
2022-09-28T23:10:19.454Z,98939.70
2022-09-28T23:12:49.925Z,98938.59
2022-09-28T23:15:21.527Z,98945.65
2022-09-28T23:17:54.937Z,98943.90
2022-09-28T23:20:25.880Z,98947.30
2022-09-28T23:22:56.601Z,98955.36
2022-09-28T23:25:27.107Z,98951.48
2022-09-28T23:27:57.524Z,98953.94
2022-09-28T23:30:28.112Z,98951.48
2022-09-28T23:33:01.274Z,98953.48
2022-09-28T23:35:31.746Z,98955.95
2022-09-28T23:38:02.333Z,98954.91
2022-09-28T23:40:32.824Z,98955.31
2022-09-28T23:43:03.400Z,98953.33
2022-09-28T23:45:33.829Z,98950.79
2022-09-28T23:48:04.819Z,98952.22
2022-09-28T23:50:35.419Z,98953.14
2022-09-28T23:53:06.600Z,98958.14
2022-09-28T23:55:37.098Z,98959.38
2022-09-28T23:58:07.544Z,98957.95
